Time,TemperatureF,DewpointF,PressureIn,WindDirection,WindDirectionDegrees,WindSpeedMPH,WindSpeedGustMPH,Humidity,HourlyPrecipIn,Conditions,Clouds,dailyrainin,SoftwareType,DateUTC
2013-08-17 00:00:00,57.0,57.0,30.12,ESE,103,0.0,0.0,100,0.00,,,-99.99,,2013-08-17 04:00:00,
2013-08-17 00:44:00,57.0,57.0,30.12,ESE,103,0.0,0.0,100,0.00,,,-99.99,,2013-08-17 04:44:00,
2013-08-17 00:53:00,57.0,57.0,30.12,ESE,103,0.0,0.0,100,0.00,,,-99.99,,2013-08-17 04:53:00,
2013-08-17 09:00:00,69.0,66.0,30.18,ENE,68,0.0,3.0,91,0.00,,,-99.99,,2013-08-17 13:00:00,
2013-08-17 09:42:00,69.0,66.0,30.18,ENE,68,0.0,3.0,91,0.00,,,-99.99,,2013-08-17 13:42:00,
2013-08-17 09:52:00,69.0,66.0,30.18,ENE,68,0.0,3.0,91,0.00,,,-99.99,,2013-08-17 13:52:00,
2013-08-17 10:00:00,74.0,65.0,30.20,ESE,102,0.0,2.0,73,0.00,,,-99.99,,2013-08-17 14:00:00,
2013-08-17 10:42:00,74.0,65.0,30.20,ESE,102,0.0,2.0,73,0.00,,,-99.99,,2013-08-17 14:42:00,
2013-08-17 10:52:00,74.0,65.0,30.20,ESE,102,0.0,2.0,73,0.00,,,-99.99,,2013-08-17 14:52:00,
2013-08-17 11:00:00,79.0,65.0,30.19,NNE,28,0.0,4.0,63,0.00,,,-99.99,,2013-08-17 15:00:00,
2013-08-17 11:44:00,79.0,65.0,30.19,NNE,28,0.0,4.0,63,0.00,,,-99.99,,2013-08-17 15:44:00,
2013-08-17 11:54:00,79.0,65.0,30.19,NNE,28,0.0,4.0,63,0.00,,,-99.99,,2013-08-17 15:54:00,
2013-08-17 12:00:00,77.0,63.0,30.19,SW,222,0.0,9.0,61,0.00,,,-99.99,,2013-08-17 16:00:00,
2013-08-17 12:42:00,77.0,63.0,30.19,SW,222,0.0,9.0,61,0.00,,,-99.99,,2013-08-17 16:42:00,
2013-08-17 12:53:00,77.0,63.0,30.19,SW,222,0.0,9.0,61,0.00,,,-99.99,,2013-08-17 16:53:00,
2013-08-17 13:00:00,80.0,57.0,30.19,North,355,1.0,9.0,46,0.00,,,-99.99,,2013-08-17 17:00:00,
2013-08-17 13:42:00,80.0,57.0,30.19,North,355,1.0,9.0,46,0.00,,,-99.99,,2013-08-17 17:42:00,
2013-08-17 13:52:00,80.0,57.0,30.19,North,355,1.0,9.0,46,0.00,,,-99.99,,2013-08-17 17:52:00,
2013-08-17 14:00:00,79.0,61.0,30.19,South,174,2.0,10.0,55,0.00,,,-99.99,,2013-08-17 18:00:00,
2013-08-17 14:42:00,79.0,61.0,30.19,South,174,2.0,10.0,55,0.00,,,-99.99,,2013-08-17 18:42:00,
2013-08-17 14:52:00,79.0,61.0,30.19,South,174,2.0,10.0,55,0.00,,,-99.99,,2013-08-17 18:52:00,
2013-08-17 15:00:00,78.0,60.0,30.18,East,79,4.0,9.0,54,0.00,,,-99.99,,2013-08-17 19:00:00,
2013-08-17 15:42:00,78.0,60.0,30.18,East,79,4.0,9.0,54,0.00,,,-99.99,,2013-08-17 19:42:00,
2013-08-17 15:52:00,78.0,60.0,30.18,East,79,4.0,9.0,54,0.00,,,-99.99,,2013-08-17 19:52:00,
2013-08-17 17:00:00,77.0,61.0,30.18,SE,134,4.0,6.0,59,0.00,,,-99.99,,2013-08-17 21:00:00,
2013-08-17 17:42:00,77.0,61.0,30.18,SE,134,4.0,6.0,59,0.00,,,-99.99,,2013-08-17 21:42:00,
2013-08-17 17:54:00,77.0,61.0,30.18,SE,134,4.0,6.0,59,0.00,,,-99.99,,2013-08-17 21:54:00,
2013-08-17 18:00:00,75.0,60.0,30.16,SE,133,0.0,6.0,59,0.00,,,-99.99,,2013-08-17 22:00:00,
2013-08-17 18:42:00,75.0,60.0,30.16,SE,133,0.0,6.0,59,0.00,,,-99.99,,2013-08-17 22:42:00,
2013-08-17 18:52:00,75.0,60.0,30.16,SE,133,0.0,6.0,59,0.00,,,-99.99,,2013-08-17 22:52:00,
2013-08-17 19:00:00,70.0,63.0,30.16,South,184,0.0,4.0,77,0.00,,,-99.99,,2013-08-17 23:00:00,
2013-08-17 19:42:00,70.0,63.0,30.16,South,184,0.0,4.0,77,0.00,,,-99.99,,2013-08-17 23:42:00,
2013-08-17 19:52:00,70.0,63.0,30.16,South,184,0.0,4.0,77,0.00,,,-99.99,,2013-08-17 23:52:00,
2013-08-17 20:00:00,63.0,62.0,30.17,South,184,0.0,0.0,96,0.00,,,-99.99,,2013-08-18 00:00:00,
2013-08-17 20:42:00,63.0,62.0,30.17,South,184,0.0,0.0,96,0.00,,,-99.99,,2013-08-18 00:42:00,
2013-08-17 20:52:00,63.0,62.0,30.17,South,184,0.0,0.0,96,0.00,,,-99.99,,2013-08-18 00:52:00,
2013-08-17 21:00:00,60.0,60.0,30.17,South,184,0.0,0.0,100,0.00,,,-99.99,,2013-08-18 01:00:00,
2013-08-17 21:42:00,60.0,60.0,30.17,South,184,0.0,0.0,100,0.00,,,-99.99,,2013-08-18 01:42:00,
2013-08-17 21:52:00,60.0,60.0,30.17,South,184,0.0,0.0,100,0.00,,,-99.99,,2013-08-18 01:52:00,
2013-08-17 22:00:00,59.0,59.0,30.18,South,184,0.0,0.0,100,0.00,,,-99.99,,2013-08-18 02:00:00,
2013-08-17 22:42:00,59.0,59.0,30.18,South,184,0.0,0.0,100,0.00,,,-99.99,,2013-08-18 02:42:00,
2013-08-17 22:52:00,59.0,59.0,30.18,South,184,0.0,0.0,100,0.00,,,-99.99,,2013-08-18 02:52:00,
2013-08-17 23:00:00,-999.0,-99.9,30.18,South,184,0.0,0.0,-999,0.00,,,-99.99,,2013-08-18 03:00:00,
2013-08-17 23:43:00,59.0,59.0,30.18,South,184,0.0,0.0,100,0.00,,,-99.99,,2013-08-18 03:43:00,
2013-08-17 23:53:00,59.0,59.0,30.18,South,184,0.0,0.0,100,0.00,,,-99.99,,2013-08-18 03:53:00,